Latest Weather Observations for Thargomindah

IDQ60801

Issued at 11:02 pm EST Monday 24 April 2017 (issued every 30 minutes, with the page automatically refreshed every 10 minutes)

About weather observations | Map of weather stations | Latest weather observations for QLD | Other Formats
Station Details ID: 045025 Name: THARGOMINDAH AIRPORT Lat: -27.99 Lon: 143.81 Height: 130.89 m
Data from the previous 72 hours. | See also: Recent months at Thargomindah
Date/Time
EST
Temp
°C
App
Temp
°C
Dew
Point
°C
Rel
Hum
%
Delta-T
°C
Wind Press
QNH
hPa
Press
MSL
hPa
Rain since
9am
mm
Dir  Spd
km/h
Gust
km/h
Spd
kts
Gust
kts
24/11:00pm 22.2 21.4 14.1 60 4.8 ENE 11 13 6 7 1015.1 - 0.0
24/10:30pm 22.6 23.0 14.7 61 4.7 E 6 6 3 3 1015.5 - 0.0
24/10:00pm 22.8 23.1 14.4 59 5.0 E 6 6 3 3 1015.5 - 0.0
24/09:30pm 23.6 23.5 13.8 54 5.8 E 7 9 4 5 1015.5 - 0.0
24/09:00pm 24.0 23.3 13.2 50 6.3 E 9 9 5 5 1015.5 1014.9 0.0
24/08:30pm 25.0 24.8 13.5 48 6.8 SE 7 7 4 4 1015.5 - 0.0
24/08:00pm 25.2 25.5 14.6 51 6.4 ESE 6 7 3 4 1015.4 - 0.0
24/07:30pm 25.8 25.6 13.0 45 7.5 SE 6 7 3 4 1015.2 - 0.0
24/07:00pm 26.9 26.4 12.5 40 8.4 SE 7 9 4 5 1015.0 - 0.0
24/06:30pm 27.8 26.4 10.9 35 9.6 SSE 9 11 5 6 1014.9 - 0.0
24/06:00pm 29.0 27.5 10.6 32 10.5 S 9 11 5 6 1014.7 1014.1 0.0
24/05:30pm 30.1 27.4 9.1 27 11.8 SW 13 15 7 8 1014.4 - 0.0
24/05:00pm 30.5 27.8 8.8 26 12.1 SSW 13 17 7 9 1014.4 - 0.0
24/04:30pm 30.4 29.3 9.8 28 11.7 WSW 6 13 3 7 1014.4 - 0.0
24/04:00pm 30.8 29.0 9.6 27 12.0 SW 9 15 5 8 1014.4 - 0.0
24/03:30pm 30.8 29.4 9.6 27 12.0 WSW 7 13 4 7 1014.3 - 0.0
24/03:00pm 30.8 29.0 9.6 27 12.0 ESE 9 13 5 7 1014.5 1013.9 0.0
24/02:30pm 30.6 29.3 10.0 28 11.7 NNE 7 13 4 7 1014.8 - 0.0
24/02:00pm 30.6 29.5 10.5 29 11.5 SW 7 13 4 7 1015.2 - 0.0
24/01:30pm 30.2 28.6 10.2 29 11.4 NW 9 15 5 8 1015.8 - 0.0
24/01:00pm 29.4 28.3 10.0 30 11.0 ENE 6 11 3 6 1016.5 - 0.0
24/12:30pm 28.8 27.5 10.0 31 10.6 SW 7 11 4 6 1017.0 - 0.0
24/12:00pm 28.9 27.9 11.0 33 10.3 SW 7 11 4 6 1017.7 1017.0 0.0
24/11:30am 28.2 27.3 11.3 35 9.7 NE 7 13 4 7 1018.2 - 0.0
24/11:00am 27.1 25.6 12.0 39 8.7 NNE 11 15 6 8 1018.7 - 0.0
24/10:30am 26.4 25.4 13.5 45 7.6 NE 11 15 6 8 1019.1 - 0.0
24/10:00am 25.2 24.6 13.4 48 6.9 NE 9 13 5 7 1019.2 - 0.0
24/09:30am 24.0 22.5 14.1 54 5.9 NE 15 19 8 10 1019.2 - 0.0
24/09:00am 22.7 22.2 14.8 61 4.7 ENE 11 15 6 8 1019.3 1018.7 2.2
24/08:30am 20.6 19.9 15.4 72 3.1 E 13 15 7 8 1019.2 - 2.2
24/08:00am 19.2 19.3 15.5 79 2.2 E 9 13 5 7 1019.4 - 2.2
24/07:30am 18.0 17.6 15.1 83 1.7 E 11 13 6 7 1019.1 - 2.2
24/07:00am 17.0 17.4 15.3 90 1.0 E 7 9 4 5 1018.9 - 2.2
24/06:30am 17.0 17.6 15.2 89 1.1 E 6 7 3 4 1018.7 - 2.2
24/06:00am 17.2 17.6 15.4 89 1.1 ESE 7 7 4 4 1018.4 1017.7 2.2
24/05:30am 17.5 18.2 15.7 89 1.1 SE 6 7 3 4 1018.3 - 2.0
24/05:00am 17.6 18.2 15.8 89 1.1 SSE 7 9 4 5 1018.2 - 2.0
24/04:30am 17.8 18.6 15.8 88 1.2 SSE 6 7 3 4 1018.2 - 2.0
24/04:00am 18.0 18.9 16.0 88 1.2 SE 6 7 3 4 1018.3 - 2.0
24/03:30am 18.2 18.9 16.0 87 1.3 SE 7 9 4 5 1018.2 - 2.0
24/03:00am 18.2 19.1 16.0 87 1.3 E 6 7 3 4 1018.4 1017.7 2.0
24/02:30am 18.6 19.5 16.0 85 1.6 ESE 6 7 3 4 1018.6 - 2.0
24/02:00am 19.0 19.7 16.2 84 1.7 ESE 7 9 4 5 1018.6 - 2.0
24/01:30am 19.2 19.9 16.2 83 1.8 SE 7 9 4 5 1018.9 - 2.0
24/01:00am 19.6 20.4 16.3 81 2.0 SE 7 9 4 5 1019.2 - 2.0
24/12:30am 19.8 20.2 16.3 80 2.1 E 9 11 5 6 1019.4 - 2.0
24/12:00am 20.1 20.5 16.3 79 2.3 E 9 13 5 7 1019.7 1019.1 2.0
 
Date/Time
EST
Temp
°C
App
Temp
°C
Dew
Point
°C
Rel
Hum
%
Delta-T
°C
Wind Press
QNH
hPa
Press
MSL
hPa
Rain since
9am
mm
Dir  Spd
km/h
Gust
km/h
Spd
kts
Gust
kts
23/11:30pm 20.3 20.8 16.5 79 2.3 ESE 9 11 5 6 1019.8 - 2.0
23/11:00pm 20.7 21.6 16.7 78 2.4 SSE 7 9 4 5 1020.0 - 2.0
23/10:30pm 21.1 22.0 16.7 76 2.7 ESE 7 11 4 6 1020.0 - 2.0
23/10:00pm 21.6 21.8 16.8 74 2.9 ESE 11 13 6 7 1020.1 - 2.0
23/09:30pm 21.9 22.8 17.5 76 2.7 ESE 9 13 5 7 1020.2 - 2.0
23/09:00pm 21.9 23.1 18.3 80 2.3 SE 9 11 5 6 1020.2 1019.6 2.0
23/08:30pm 22.1 23.0 18.3 79 2.4 SE 11 15 6 8 1020.0 - 2.0
23/08:00pm 22.2 23.6 18.6 80 2.3 SE 9 13 5 7 1019.8 - 2.0
23/07:30pm 22.1 23.0 18.3 79 2.4 SSE 11 13 6 7 1019.5 - 2.0
23/07:00pm 22.5 22.9 17.2 72 3.3 SE 11 13 6 7 1019.1 - 2.0
23/06:30pm 21.7 22.0 17.9 79 2.4 SE 13 15 7 8 1018.7 - 2.0
23/06:00pm 22.2 19.7 16.2 69 3.6 E 24 39 13 21 1018.6 1017.9 2.0
23/05:53pm 21.7 17.3 15.1 66 3.9 E 32 57 17 31 1018.7 - 2.0
23/05:50pm 23.2 18.1 17.6 71 3.5 SE 41 69 22 37 1018.6 - 2.0
23/05:43pm 17.9 10.3 13.6 76 2.5 SE 46 72 25 39 1018.7 - 1.6
23/05:38pm 21.8 14.6 13.2 58 5.0 S 43 72 23 39 1018.4 - 0.0
23/05:30pm 23.3 17.5 13.8 55 5.6 S 37 52 20 28 1018.4 - 0.0
23/05:18pm 25.4 20.6 12.9 45 7.3 SSW 30 56 16 30 1018.2 - 0.0
23/05:15pm 25.2 20.8 12.8 46 7.2 SSW 28 39 15 21 1018.5 - 0.0
23/05:00pm 27.8 26.2 11.4 36 9.4 ENE 11 13 6 7 1018.1 - 0.0
23/04:30pm 28.2 27.3 11.3 35 9.7 SE 7 11 4 6 1017.8 - 0.0
23/04:00pm 27.8 27.0 11.8 37 9.3 SE 7 13 4 7 1017.7 - 0.0
23/03:30pm 27.9 27.0 11.5 36 9.5 S 7 15 4 8 1017.9 - 0.0
23/03:00pm 28.3 27.8 12.2 37 9.4 ESE 6 13 3 7 1018.0 1017.3 0.0
23/02:30pm 27.7 26.0 12.5 39 8.9 ESE 13 17 7 9 1018.2 - 0.0
23/02:00pm 27.9 28.7 13.8 42 8.4 S 2 7 1 4 1018.4 - 0.0
23/01:30pm 27.1 26.4 13.1 42 8.3 SSW 9 13 5 7 1018.7 - 0.0
23/01:00pm 26.7 26.5 14.8 48 7.2 SSE 9 17 5 9 1019.1 - 0.0
23/12:30pm 26.5 26.8 14.9 49 7.0 ESE 7 11 4 6 1019.6 - 0.0
23/12:00pm 26.2 25.7 15.0 50 6.8 E 11 17 6 9 1020.1 1019.5 0.0
23/11:30am 25.6 25.2 15.3 53 6.3 ENE 11 15 6 8 1020.6 - 0.0
23/11:00am 25.0 24.5 15.0 53 6.0 ESE 11 19 6 10 1021.0 - 0.0
23/10:30am 24.1 23.8 14.5 55 5.7 E 9 15 5 8 1021.2 - 0.0
23/10:00am 23.0 23.2 15.8 64 4.4 E 9 13 5 7 1021.4 - 0.0
23/09:30am 22.8 23.2 17.3 71 3.4 SE 11 15 6 8 1021.2 - 0.0
23/09:00am 22.1 22.2 16.6 71 3.4 E 11 13 6 7 1020.8 1020.2 5.0
23/08:30am 21.4 21.2 16.8 75 2.8 E 13 20 7 11 1020.5 - 5.0
23/08:00am 20.5 20.6 16.5 78 2.4 ESE 11 15 6 8 1020.3 - 5.0
23/07:30am 19.6 20.3 17.0 85 1.6 ESE 9 13 5 7 1020.1 - 5.0
23/07:00am 19.4 20.5 17.0 86 1.5 SE 7 11 4 6 1019.9 - 5.0
23/06:30am 19.1 18.3 17.2 89 1.2 E 17 20 9 11 1019.6 - 5.0
23/06:00am 19.5 21.7 17.5 88 1.2 E 2 7 1 4 1019.8 1019.2 4.6
23/05:30am 19.4 20.6 17.4 88 1.2 S 7 9 4 5 1019.9 - 4.6
23/05:00am 19.1 19.9 17.4 90 1.0 SW 9 13 5 7 1020.0 - 3.8
23/04:30am 19.2 20.0 17.3 89 1.2 E 9 11 5 6 1019.5 - 3.6
23/04:00am 19.4 20.6 17.4 88 1.2 SE 7 9 4 5 1019.7 - 2.6
23/03:30am 19.6 22.2 17.6 88 1.2 CALM 0 0 0 0 1019.7 - 2.0
23/03:00am 19.4 20.6 17.4 88 1.2 NW 7 9 4 5 1020.3 1019.7 1.4
23/02:30am 20.0 19.0 16.6 81 2.1 W 17 24 9 13 1020.7 - 0.2
23/02:00am 22.7 22.0 14.3 59 5.0 W 11 17 6 9 1020.6 - 0.2
23/01:30am 23.5 22.5 13.4 53 5.9 SW 11 15 6 8 1020.6 - 0.2
23/01:00am 23.9 22.3 12.8 49 6.4 W 13 19 7 10 1020.7 - 0.2
23/12:30am 24.3 22.6 12.6 48 6.8 WNW 13 19 7 10 1020.8 - 0.2
23/12:00am 24.3 24.0 12.6 48 6.7 NNE 6 9 3 5 1020.6 1020.0 0.2
 
Date/Time
EST
Temp
°C
App
Temp
°C
Dew
Point
°C
Rel
Hum
%
Delta-T
°C
Wind Press
QNH
hPa
Press
MSL
hPa
Rain since
9am
mm
Dir  Spd
km/h
Gust
km/h
Spd
kts
Gust
kts
22/11:30pm 24.5 23.7 12.8 48 6.8 E 9 13 5 7 1020.3 - 0.2
22/11:00pm 24.6 23.3 12.5 46 7.0 E 11 15 6 8 1020.3 - 0.2
22/10:30pm 24.7 23.6 12.0 45 7.3 E 9 13 5 7 1020.4 - 0.2
22/10:00pm 24.8 24.0 11.7 44 7.5 E 7 11 4 6 1020.4 - 0.2
22/09:30pm 25.0 24.4 12.2 44 7.4 E 7 9 4 5 1020.3 - 0.2
22/09:00pm 25.1 24.2 12.7 46 7.2 E 9 13 5 7 1020.2 1019.6 0.2
22/08:30pm 25.3 24.0 12.5 45 7.4 E 11 13 6 7 1020.0 - 0.2
22/08:00pm 25.4 24.4 12.3 44 7.6 ENE 9 13 5 7 1019.7 - 0.2
22/07:30pm 25.7 24.7 11.1 40 8.3 E 7 7 4 4 1019.4 - 0.2
22/07:00pm 26.2 25.3 11.5 40 8.4 E 7 9 4 5 1019.1 - 0.2
22/06:30pm 26.7 25.4 11.2 38 8.8 E 9 13 5 7 1018.8 - 0.2
22/06:00pm 27.0 25.0 10.2 35 9.4 E 11 13 6 7 1018.7 1018.0 0.2
22/05:30pm 27.5 26.4 10.7 35 9.5 E 7 9 4 5 1018.6 - 0.2
22/05:00pm 27.6 26.0 10.3 34 9.8 E 9 17 5 9 1018.5 - 0.2
22/04:30pm 28.2 26.7 10.4 33 10.1 E 9 15 5 8 1018.3 - 0.2
22/04:00pm 27.8 25.9 10.5 34 9.8 E 11 15 6 8 1018.2 - 0.2
22/03:30pm 27.7 26.3 10.9 35 9.6 E 9 17 5 9 1018.1 - 0.2
22/03:00pm 27.8 25.5 10.5 34 9.8 ENE 13 19 7 10 1018.2 1017.5 0.2
22/02:30pm 28.0 26.5 10.7 34 9.9 ENE 9 15 5 8 1018.3 - 0.2
22/02:00pm 27.7 26.9 11.7 37 9.2 NNE 7 13 4 7 1018.7 - 0.2
22/01:30pm 27.5 26.9 12.3 39 8.9 N 7 11 4 6 1019.0 - 0.2
22/01:00pm 27.1 26.6 12.7 41 8.4 NNE 7 13 4 7 1019.4 - 0.2
22/12:30pm 26.9 25.7 12.9 42 8.2 N 11 17 6 9 1019.8 - 0.2
22/12:00pm 26.8 25.3 13.2 43 8.0 N 13 24 7 13 1020.2 1019.6 0.0
22/11:30am 26.0 25.1 13.8 47 7.2 NE 11 17 6 9 1020.6 - 0.0
22/11:00am 25.4 24.1 13.6 48 7.0 E 13 17 7 9 1021.1 - 0.0
22/10:30am 23.7 22.9 14.1 55 5.7 ENE 11 15 6 8 1021.4 - 0.0
22/10:00am 23.1 22.2 13.8 55 5.5 E 11 13 6 7 1021.6 - 0.0
22/09:30am 22.2 21.2 13.5 57 5.1 E 11 13 6 7 1021.6 - 0.0
22/09:00am 21.6 20.1 13.2 59 4.8 E 13 15 7 8 1021.6 1021.0 0.4
22/08:30am 21.2 20.4 13.9 63 4.3 E 11 15 6 8 1021.5 - 0.4
22/08:00am 20.7 20.2 13.9 65 4.0 ESE 9 11 5 6 1021.3 - 0.4
22/07:30am 20.4 20.4 14.1 67 3.7 E 7 9 4 5 1020.9 - 0.4
22/07:00am 20.3 20.0 13.3 64 4.0 ENE 7 9 4 5 1020.4 - 0.4
22/06:30am 20.0 19.5 13.9 68 3.5 ESE 9 11 5 6 1020.0 - 0.4
22/06:00am 20.0 19.7 13.2 65 3.9 E 7 9 4 5 1019.8 1019.2 0.2
22/05:30am 20.2 20.1 13.9 67 3.7 E 7 9 4 5 1019.6 - 0.0
22/05:00am 21.0 19.7 11.3 54 5.4 ESE 9 13 5 7 1019.2 - 0.0
22/04:30am 21.5 19.8 10.0 48 6.3 ESE 9 13 5 7 1019.0 - 0.0
22/04:00am 22.4 20.1 7.4 38 7.8 ESE 9 13 5 7 1019.0 - 0.0
22/03:30am 22.5 19.8 7.5 38 7.8 SSE 11 15 6 8 1019.0 - 0.0
22/03:00am 22.7 19.6 7.3 37 8.0 ESE 13 17 7 9 1019.2 1018.6 0.0
22/02:30am 22.7 19.6 7.3 37 8.0 ESE 13 17 7 9 1019.4 - 0.0
22/02:00am 22.7 19.9 6.9 36 8.2 E 11 15 6 8 1019.7 - 0.0
22/01:30am 22.8 20.0 7.0 36 8.2 E 11 17 6 9 1019.9 - 0.0
22/01:00am 23.1 20.3 6.8 35 8.4 ESE 11 15 6 8 1020.1 - 0.0
22/12:30am 23.6 20.8 6.8 34 8.7 ESE 11 15 6 8 1020.4 - 0.0
22/12:00am 24.1 20.9 6.8 33 9.0 E 13 17 7 9 1020.6 1020.0 0.0
 
Date/Time
EST
Temp
°C
App
Temp
°C
Dew
Point
°C
Rel
Hum
%
Delta-T
°C
Wind Press
QNH
hPa
Press
MSL
hPa
Rain since
9am
mm
Dir  Spd
km/h
Gust
km/h
Spd
kts
Gust
kts
21/11:30pm 24.7 21.2 7.4 33 9.2 E 15 20 8 11 1020.6 - 0.0

Other Formats:

Comma delimited format used in spreadsheet applications
http://www.bom.gov.au/fwo/IDQ60801/IDQ60801.95492.axf

JavaScript Object Notation format (JSON) in row-major order
http://www.bom.gov.au/fwo/IDQ60801/IDQ60801.95492.json